createdAt,value
2018-10-01T00:00:10.548Z,7.70
2018-10-01T00:02:39.183Z,7.90
2018-10-01T00:05:06.760Z,7.90
2018-10-01T00:07:34.334Z,8.00
2018-10-01T00:10:01.920Z,8.10
2018-10-01T00:12:29.504Z,8.00
2018-10-01T00:14:57.042Z,7.80
2018-10-01T00:17:24.703Z,7.70
2018-10-01T00:21:00.355Z,7.70
2018-10-01T00:23:27.939Z,7.90
2018-10-01T00:25:55.528Z,8.10
2018-10-01T00:28:23.115Z,8.10
2018-10-01T00:30:50.676Z,8.10
2018-10-01T00:33:18.236Z,8.20
2018-10-01T00:35:45.767Z,8.30
2018-10-01T00:38:13.445Z,8.30
2018-10-01T00:40:41.028Z,8.20
2018-10-01T00:43:08.594Z,8.00
2018-10-01T00:45:36.252Z,7.80
2018-10-01T00:48:03.860Z,7.60
2018-10-01T00:50:31.428Z,7.80
2018-10-01T00:53:03.190Z,7.80
2018-10-01T00:55:30.722Z,7.80
2018-10-01T00:57:58.244Z,7.80
2018-10-01T01:00:25.788Z,7.70
2018-10-01T01:02:55.323Z,7.50
2018-10-01T01:05:22.899Z,7.30
2018-10-01T01:07:50.411Z,7.20
2018-10-01T01:10:17.940Z,7.30
2018-10-01T01:12:53.696Z,7.30
2018-10-01T01:15:21.269Z,7.40
2018-10-01T01:17:48.831Z,7.40
2018-10-01T01:20:16.343Z,7.40
2018-10-01T01:22:43.890Z,7.40
2018-10-01T01:25:11.500Z,7.40
2018-10-01T01:27:39.052Z,7.30
2018-10-01T01:30:06.656Z,7.20
2018-10-01T01:32:41.740Z,7.20
2018-10-01T01:35:09.308Z,7.20
2018-10-01T01:37:36.847Z,7.30
2018-10-01T01:40:04.956Z,7.30
2018-10-01T01:42:36.452Z,7.30
2018-10-01T01:45:04.001Z,7.40
2018-10-01T01:47:31.552Z,7.30
2018-10-01T01:49:59.104Z,7.20
2018-10-01T01:52:26.681Z,7.20
2018-10-01T01:54:54.212Z,7.10
2018-10-01T01:57:21.743Z,7.00
2018-10-01T01:59:49.317Z,7.00
2018-10-01T02:02:20.744Z,7.00
2018-10-01T02:04:48.336Z,7.00
2018-10-01T02:07:15.851Z,6.90
2018-10-01T02:09:43.427Z,6.90
2018-10-01T02:12:11.083Z,6.90
2018-10-01T02:14:38.591Z,6.90
2018-10-01T02:17:06.160Z,6.70
2018-10-01T02:19:33.720Z,6.60
2018-10-01T02:22:01.303Z,6.60
2018-10-01T02:24:28.822Z,6.70
2018-10-01T02:26:56.380Z,6.80
2018-10-01T02:29:23.909Z,6.90
2018-10-01T02:31:52.444Z,6.90
2018-10-01T02:34:19.982Z,6.80
2018-10-01T02:36:47.531Z,6.60
2018-10-01T02:39:15.078Z,6.50
2018-10-01T02:41:43.756Z,6.60
2018-10-01T02:44:11.529Z,6.70
2018-10-01T02:46:39.242Z,6.70
2018-10-01T02:49:06.969Z,6.80
2018-10-01T02:51:38.920Z,6.80
2018-10-01T02:54:12.123Z,6.80
2018-10-01T02:56:39.820Z,6.80
2018-10-01T02:59:07.467Z,6.50
2018-10-01T03:01:35.220Z,6.40
2018-10-01T03:04:02.864Z,6.40
2018-10-01T03:06:30.564Z,6.70
2018-10-01T03:08:58.228Z,6.90
2018-10-01T03:11:29.716Z,7.00
2018-10-01T03:13:57.325Z,7.10
2018-10-01T03:16:24.959Z,7.20
2018-10-01T03:18:52.648Z,7.30
2018-10-01T03:21:20.385Z,7.30
2018-10-01T03:23:48.059Z,7.30
2018-10-01T03:26:15.720Z,7.20
2018-10-01T03:28:43.268Z,7.20
2018-10-01T03:31:10.840Z,7.20
2018-10-01T03:33:38.353Z,7.00
2018-10-01T03:36:05.916Z,7.00
2018-10-01T03:38:33.480Z,7.10
2018-10-01T03:41:03.064Z,7.10
2018-10-01T03:43:30.648Z,7.20
2018-10-01T03:45:58.174Z,7.10
2018-10-01T03:48:25.714Z,7.20
2018-10-01T03:50:53.227Z,7.10
2018-10-01T03:53:20.821Z,7.20
2018-10-01T03:55:48.407Z,7.20
2018-10-01T03:58:15.949Z,7.20
2018-10-01T04:00:43.530Z,7.20
2018-10-01T04:03:11.261Z,7.00
2018-10-01T04:05:38.784Z,6.90
2018-10-01T04:08:06.285Z,7.00
2018-10-01T04:10:33.862Z,7.00
2018-10-01T04:13:16.370Z,7.00
2018-10-01T04:15:43.940Z,7.00
2018-10-01T04:18:11.639Z,7.00
2018-10-01T04:20:39.187Z,7.10
2018-10-01T04:23:11.047Z,7.10
2018-10-01T04:25:38.583Z,7.20
2018-10-01T04:28:06.184Z,7.10
2018-10-01T04:30:33.727Z,7.20
2018-10-01T04:33:04.442Z,7.10
2018-10-01T04:35:31.955Z,7.10
2018-10-01T04:37:59.468Z,7.20
2018-10-01T04:40:26.996Z,7.20
2018-10-01T04:43:08.284Z,7.20
2018-10-01T04:45:35.848Z,7.10
2018-10-01T04:48:03.422Z,7.20
2018-10-01T04:50:31.315Z,7.10
2018-10-01T04:53:02.325Z,6.90
2018-10-01T04:55:29.939Z,6.80
2018-10-01T04:57:57.642Z,6.80
2018-10-01T05:00:25.169Z,6.80
2018-10-01T05:02:52.780Z,6.80
2018-10-01T05:07:53.380Z,6.70
2018-10-01T05:10:20.914Z,6.70
2018-10-01T05:19:50.494Z,6.60
2018-10-01T05:22:25.687Z,6.60
2018-10-01T05:24:53.188Z,6.60
2018-10-01T05:27:20.717Z,6.60
2018-10-01T05:29:48.232Z,6.70
2018-10-01T05:32:30.495Z,6.60
2018-10-01T05:34:58.040Z,6.70
2018-10-01T05:37:25.636Z,6.70
2018-10-01T05:39:53.249Z,6.70
2018-10-01T05:42:20.979Z,6.60
2018-10-01T05:44:48.610Z,6.70
2018-10-01T05:47:16.268Z,6.90
2018-10-01T05:49:43.942Z,7.00
2018-10-01T05:52:12.681Z,7.20
2018-10-01T05:54:40.383Z,7.40
2018-10-01T05:57:08.041Z,7.60
2018-10-01T05:59:35.695Z,7.70
2018-10-01T06:02:05.516Z,7.70
2018-10-01T06:04:33.149Z,7.80
2018-10-01T06:07:00.851Z,7.80
2018-10-01T06:09:28.660Z,7.80
2018-10-01T06:11:56.561Z,7.80
2018-10-01T06:14:24.164Z,7.80
2018-10-01T06:16:51.828Z,7.90
2018-10-01T06:19:19.548Z,7.90
2018-10-01T06:24:15.701Z,8.00
2018-10-01T06:26:43.423Z,8.10
2018-10-01T06:29:11.084Z,8.20
2018-10-01T06:31:46.851Z,8.30
2018-10-01T06:34:14.492Z,8.30
2018-10-01T06:36:42.148Z,8.50
2018-10-01T06:39:10.932Z,8.50
2018-10-01T06:41:55.739Z,8.60
2018-10-01T06:44:23.312Z,8.60
2018-10-01T06:46:51.011Z,8.70
2018-10-01T06:49:18.640Z,8.80
2018-10-01T06:51:54.184Z,8.90
2018-10-01T06:54:21.912Z,9.00
2018-10-01T06:56:49.635Z,9.00
2018-10-01T06:59:17.351Z,9.20
2018-10-01T07:01:45.036Z,9.20
2018-10-01T07:06:40.125Z,9.40
2018-10-01T07:09:08.517Z,9.50
2018-10-01T07:11:39.135Z,9.60
2018-10-01T07:14:13.139Z,9.70
2018-10-01T07:16:40.832Z,9.70
2018-10-01T07:19:08.567Z,9.90
2018-10-01T07:21:37.384Z,10.10
2018-10-01T07:24:05.016Z,10.00
2018-10-01T07:26:32.711Z,10.10
2018-10-01T07:31:29.223Z,10.30
2018-10-01T07:33:56.895Z,10.50
2018-10-01T07:36:24.651Z,10.30
2018-10-01T07:38:52.333Z,10.40
2018-10-01T07:41:27.137Z,10.50
2018-10-01T07:43:54.880Z,10.50
2018-10-01T07:46:22.663Z,10.80
2018-10-01T07:48:50.278Z,10.90
2018-10-01T07:51:18.018Z,11.10
2018-10-01T07:56:13.108Z,11.40
2018-10-01T07:58:40.820Z,11.40
2018-10-01T08:01:09.576Z,11.60
2018-10-01T08:03:37.256Z,11.60
2018-10-01T08:06:04.904Z,11.60
2018-10-01T08:08:32.663Z,11.80
2018-10-01T08:11:06.372Z,11.70
2018-10-01T08:13:34.110Z,11.70
2018-10-01T08:16:01.781Z,11.90
2018-10-01T08:18:29.467Z,12.00
2018-10-01T08:20:59.180Z,12.20
2018-10-01T08:23:26.933Z,12.40
2018-10-01T08:25:54.614Z,12.70
2018-10-01T08:28:22.284Z,12.90
2018-10-01T08:30:49.952Z,12.70
2018-10-01T08:33:17.664Z,12.50
2018-10-01T08:35:45.408Z,12.40
2018-10-01T08:38:13.171Z,12.50
2018-10-01T08:40:40.777Z,12.50
2018-10-01T08:43:08.517Z,12.60
2018-10-01T08:45:36.184Z,12.50
2018-10-01T08:48:03.861Z,12.80
2018-10-01T08:50:37.876Z,12.80
2018-10-01T08:53:48.836Z,12.60
2018-10-01T08:56:16.613Z,13.00
2018-10-01T08:58:44.228Z,12.90
2018-10-01T09:01:15.213Z,12.90
2018-10-01T09:03:42.852Z,13.00
2018-10-01T09:06:10.496Z,13.20
2018-10-01T09:08:38.255Z,13.30
2018-10-01T09:11:05.898Z,13.30
2018-10-01T09:13:33.564Z,13.20
2018-10-01T09:16:01.261Z,13.50
2018-10-01T09:18:28.971Z,13.20
2018-10-01T09:20:56.677Z,13.50
2018-10-01T09:23:24.360Z,13.60
2018-10-01T09:25:52.040Z,13.70
2018-10-01T09:28:19.702Z,13.80
2018-10-01T09:30:47.361Z,13.90
2018-10-01T09:33:15.044Z,13.90
2018-10-01T09:35:42.741Z,13.50
2018-10-01T09:38:10.353Z,13.70
2018-10-01T09:40:38.170Z,13.70
2018-10-01T09:43:11.624Z,13.80
2018-10-01T09:45:39.356Z,13.90
2018-10-01T09:48:07.091Z,14.00
2018-10-01T09:50:34.864Z,13.90
2018-10-01T09:53:02.607Z,14.20
2018-10-01T09:55:30.332Z,14.60
2018-10-01T09:57:58.148Z,14.50
2018-10-01T10:00:31.421Z,14.00
2018-10-01T10:03:00.193Z,13.70
2018-10-01T10:05:27.878Z,13.90
2018-10-01T10:07:55.520Z,13.80
2018-10-01T10:10:23.145Z,14.00
2018-10-01T10:12:51.892Z,14.10
2018-10-01T10:15:19.663Z,13.90
2018-10-01T10:17:47.481Z,14.30
2018-10-01T10:20:15.273Z,14.00
2018-10-01T10:22:44.832Z,13.90
2018-10-01T10:25:12.568Z,14.10
2018-10-01T10:27:40.244Z,14.10
2018-10-01T10:30:08.633Z,13.70
2018-10-01T10:32:53.644Z,13.80
2018-10-01T10:35:21.437Z,13.80
2018-10-01T10:37:49.075Z,13.50
2018-10-01T10:40:16.764Z,13.40
2018-10-01T10:42:57.256Z,13.60
2018-10-01T10:45:24.948Z,13.60
2018-10-01T10:47:52.637Z,13.70
2018-10-01T10:50:20.339Z,13.80
2018-10-01T10:52:52.856Z,13.90
2018-10-01T10:55:20.576Z,13.70
2018-10-01T10:57:48.264Z,13.50
2018-10-01T11:00:15.892Z,13.50
2018-10-01T11:02:47.570Z,13.50
2018-10-01T11:05:15.252Z,13.20
2018-10-01T11:07:42.947Z,13.10
2018-10-01T11:10:10.579Z,12.90
2018-10-01T11:12:38.272Z,12.90
2018-10-01T11:15:08.106Z,13.00
2018-10-01T11:17:35.717Z,12.90
2018-10-01T11:20:03.473Z,12.80
2018-10-01T11:22:32.230Z,12.80
2018-10-01T11:24:59.892Z,12.80
2018-10-01T11:27:27.573Z,12.90
2018-10-01T11:29:55.113Z,13.00
2018-10-01T11:32:22.890Z,13.40
2018-10-01T11:34:50.710Z,13.80
2018-10-01T11:37:18.357Z,13.90
2018-10-01T11:39:46.359Z,13.90
2018-10-01T11:42:13.845Z,13.80
2018-10-01T11:44:41.532Z,13.60
2018-10-01T11:47:09.277Z,13.50
2018-10-01T11:49:36.984Z,13.30
2018-10-01T11:52:04.651Z,13.10
2018-10-01T11:54:32.347Z,12.90
2018-10-01T11:57:00.062Z,12.70
2018-10-01T11:59:27.656Z,12.70
2018-10-01T12:02:07.802Z,12.90
2018-10-01T12:04:35.316Z,13.20
2018-10-01T12:07:02.879Z,14.00
2018-10-01T12:09:30.526Z,14.80
2018-10-01T12:11:58.319Z,15.60
2018-10-01T12:14:26.096Z,16.00
2018-10-01T12:16:53.813Z,16.40
2018-10-01T12:19:21.448Z,16.80
2018-10-01T12:22:00.077Z,15.80
2018-10-01T12:24:27.698Z,16.00
2018-10-01T12:26:55.368Z,16.00
2018-10-01T12:29:23.024Z,15.70
2018-10-01T12:31:51.800Z,15.30
2018-10-01T12:34:19.480Z,15.70
2018-10-01T12:36:47.168Z,16.10
2018-10-01T12:39:14.757Z,16.80
2018-10-01T12:41:42.299Z,18.30
2018-10-01T12:44:09.910Z,18.60
2018-10-01T12:46:37.427Z,16.70
2018-10-01T12:49:05.088Z,16.10
2018-10-01T12:51:42.439Z,16.00
2018-10-01T12:54:10.069Z,16.00
2018-10-01T12:56:37.763Z,16.00
2018-10-01T12:59:05.589Z,15.40
2018-10-01T13:01:36.980Z,15.40
2018-10-01T13:04:04.707Z,15.40
2018-10-01T13:06:32.390Z,15.10
2018-10-01T13:09:00.081Z,15.10
2018-10-01T13:11:44.372Z,14.50
2018-10-01T13:14:12.034Z,14.50
2018-10-01T13:16:39.792Z,14.40
2018-10-01T13:19:07.482Z,14.50
2018-10-01T13:21:37.315Z,15.90
2018-10-01T13:24:04.994Z,17.30
2018-10-01T13:26:32.643Z,17.10
2018-10-01T13:29:00.324Z,17.40
2018-10-01T13:31:29.040Z,16.50
2018-10-01T13:36:24.416Z,19.50
2018-10-01T13:38:52.150Z,19.60
2018-10-01T13:41:21.004Z,20.00
2018-10-01T13:46:16.068Z,17.90
2018-10-01T13:48:43.801Z,16.60
2018-10-01T13:51:12.525Z,15.50
2018-10-01T13:53:40.292Z,15.80
2018-10-01T13:56:07.912Z,16.40
2018-10-01T13:58:35.629Z,15.80
2018-10-01T14:01:03.325Z,15.40
2018-10-01T14:03:31.052Z,15.10
2018-10-01T14:05:58.735Z,15.00
2018-10-01T14:08:26.447Z,15.20
2018-10-01T14:11:04.560Z,14.90
2018-10-01T14:13:32.371Z,15.30
2018-10-01T14:16:00.016Z,14.70
2018-10-01T14:18:27.731Z,14.40
2018-10-01T14:20:55.464Z,14.40
2018-10-01T14:23:23.259Z,14.30
2018-10-01T14:25:50.972Z,14.70
2018-10-01T14:28:18.636Z,15.50
2018-10-01T14:30:46.288Z,15.90
2018-10-01T14:35:48.112Z,17.80
2018-10-01T14:38:15.860Z,19.00
2018-10-01T14:40:43.504Z,20.40
2018-10-01T14:43:11.225Z,19.50
2018-10-01T14:45:38.824Z,21.10
2018-10-01T14:48:06.530Z,19.40
2018-10-01T14:50:34.168Z,20.10
2018-10-01T14:53:01.869Z,19.40
2018-10-01T14:57:56.836Z,18.30
2018-10-01T15:00:24.698Z,17.80
2018-10-01T15:02:52.296Z,17.50
2018-10-01T15:05:19.807Z,18.40
2018-10-01T15:07:48.077Z,18.60
2018-10-01T15:10:15.720Z,18.80
2018-10-01T15:12:57.824Z,20.10
2018-10-01T15:15:25.472Z,20.70
2018-10-01T15:17:53.160Z,21.10
2018-10-01T15:20:21.903Z,19.60
2018-10-01T15:22:49.691Z,19.30
2018-10-01T15:25:17.364Z,19.00
2018-10-01T15:27:45.002Z,17.60
2018-10-01T15:30:12.739Z,16.20
2018-10-01T15:32:40.340Z,17.30
2018-10-01T15:35:08.081Z,16.40
2018-10-01T15:37:35.747Z,17.00
2018-10-01T15:40:03.396Z,16.10
2018-10-01T15:42:31.120Z,15.60
2018-10-01T15:44:58.840Z,14.90
2018-10-01T15:47:26.532Z,14.30
2018-10-01T15:49:54.244Z,13.80
2018-10-01T15:52:22.008Z,13.70
2018-10-01T15:54:49.724Z,13.50
2018-10-01T15:57:17.488Z,13.50
2018-10-01T15:59:45.185Z,13.90
2018-10-01T16:02:21.599Z,13.70
2018-10-01T16:04:49.458Z,13.60
2018-10-01T16:07:17.136Z,13.60
2018-10-01T16:09:44.802Z,13.30
2018-10-01T16:12:20.832Z,13.20
2018-10-01T16:14:48.575Z,13.00
2018-10-01T16:17:16.648Z,13.30
2018-10-01T16:19:44.312Z,13.40
2018-10-01T16:24:45.008Z,13.20
2018-10-01T16:27:12.636Z,13.00
2018-10-01T16:29:40.276Z,12.60
2018-10-01T16:32:08.032Z,12.40
2018-10-01T16:34:35.676Z,12.40
2018-10-01T16:37:03.368Z,12.20
2018-10-01T16:39:31.055Z,12.20
2018-10-01T16:41:59.827Z,12.20
2018-10-01T16:47:00.620Z,12.10
2018-10-01T16:49:28.262Z,12.10
2018-10-01T16:51:55.915Z,12.00
2018-10-01T16:54:23.572Z,12.00
2018-10-01T16:56:51.208Z,11.80
2018-10-01T16:59:18.893Z,11.80
2018-10-01T17:01:48.172Z,11.70
2018-10-01T17:04:15.953Z,11.70
2018-10-01T17:06:43.672Z,11.60
2018-10-01T17:09:11.399Z,11.60
2018-10-01T17:11:43.286Z,11.60
2018-10-01T17:14:10.962Z,11.60
2018-10-01T17:16:38.632Z,11.50
2018-10-01T17:19:06.304Z,11.50
2018-10-01T17:21:34.019Z,11.40
2018-10-01T17:24:01.544Z,11.30
2018-10-01T17:26:29.148Z,11.30
2018-10-01T17:28:56.704Z,11.20
2018-10-01T17:31:24.239Z,11.20
2018-10-01T17:33:51.863Z,11.10
2018-10-01T17:36:19.385Z,11.20
2018-10-01T17:38:46.980Z,11.20
2018-10-01T17:41:16.563Z,11.20
2018-10-01T17:43:44.196Z,11.00
2018-10-01T17:46:11.767Z,10.90
2018-10-01T17:48:39.484Z,10.70
2018-10-01T17:51:07.287Z,10.60
2018-10-01T17:53:34.989Z,10.50
2018-10-01T17:56:02.691Z,10.20
2018-10-01T17:58:30.322Z,10.20
2018-10-01T18:00:59.004Z,10.00
2018-10-01T18:03:26.711Z,9.80
2018-10-01T18:05:54.382Z,9.90
2018-10-01T18:08:22.036Z,9.90
2018-10-01T18:10:49.801Z,9.60
2018-10-01T18:13:17.423Z,9.60
2018-10-01T18:15:44.991Z,9.70
2018-10-01T18:18:12.564Z,9.80
2018-10-01T18:20:40.119Z,9.80
2018-10-01T18:23:07.679Z,9.90
2018-10-01T18:25:35.216Z,9.70
2018-10-01T18:28:02.808Z,9.60
2018-10-01T18:30:30.416Z,9.80
2018-10-01T18:32:57.992Z,9.70
2018-10-01T18:35:25.536Z,9.70
2018-10-01T18:37:53.073Z,9.60
2018-10-01T18:40:20.724Z,9.70
2018-10-01T18:42:49.532Z,9.80
2018-10-01T18:45:17.177Z,9.70
2018-10-01T18:47:45.198Z,9.60
2018-10-01T18:50:12.849Z,9.70
2018-10-01T18:52:40.599Z,9.80
2018-10-01T18:55:08.283Z,9.60
2018-10-01T18:57:35.916Z,9.50
2018-10-01T19:00:03.463Z,9.50
2018-10-01T19:02:31.060Z,9.50
2018-10-01T19:04:58.668Z,9.50
2018-10-01T19:07:26.261Z,9.50
2018-10-01T19:09:53.813Z,9.60
2018-10-01T19:12:21.413Z,9.50
2018-10-01T19:14:48.974Z,9.30
2018-10-01T19:17:16.459Z,9.30
2018-10-01T19:19:44.019Z,9.30
2018-10-01T19:22:11.660Z,9.20
2018-10-01T19:24:39.172Z,9.30
2018-10-01T19:27:06.736Z,9.40
2018-10-01T19:29:34.214Z,9.40
2018-10-01T19:32:01.858Z,9.40
2018-10-01T19:34:29.403Z,9.30
2018-10-01T19:36:57.110Z,9.30
2018-10-01T19:39:24.710Z,9.30
2018-10-01T19:41:52.265Z,9.40
2018-10-01T19:44:26.454Z,9.30
2018-10-01T19:46:54.052Z,9.40
2018-10-01T19:49:21.566Z,9.30
2018-10-01T19:51:54.371Z,9.40
2018-10-01T19:54:21.930Z,9.40
2018-10-01T19:56:49.647Z,9.30
2018-10-01T19:59:17.170Z,9.30
2018-10-01T20:01:44.956Z,9.40
2018-10-01T20:04:12.512Z,9.30
2018-10-01T20:06:40.028Z,9.20
2018-10-01T20:09:08.640Z,9.30
2018-10-01T20:11:40.511Z,9.20
2018-10-01T20:14:08.088Z,9.10
2018-10-01T20:16:35.682Z,9.00
2018-10-01T20:19:03.212Z,8.90
2018-10-01T20:21:31.030Z,8.80
2018-10-01T20:23:58.675Z,8.80
2018-10-01T20:26:26.209Z,8.90
2018-10-01T20:28:54.096Z,8.70
2018-10-01T20:31:22.447Z,8.70
2018-10-01T20:33:50.012Z,8.80
2018-10-01T20:36:17.599Z,8.80
2018-10-01T20:38:45.093Z,8.70
2018-10-01T20:41:19.844Z,8.80
2018-10-01T20:43:47.388Z,8.70
2018-10-01T20:46:14.980Z,8.70
2018-10-01T20:48:42.544Z,8.50
2018-10-01T20:51:17.308Z,8.50
2018-10-01T20:53:45.057Z,8.50
2018-10-01T20:56:12.585Z,8.50
2018-10-01T20:58:40.206Z,8.40
2018-10-01T21:01:08.056Z,8.40
2018-10-01T21:03:35.587Z,8.30
2018-10-01T21:06:03.162Z,8.20
2018-10-01T21:08:30.727Z,8.30
2018-10-01T21:11:05.251Z,8.30
2018-10-01T21:16:06.916Z,8.40
2018-10-01T21:18:34.481Z,8.30
2018-10-01T21:21:03.147Z,8.30
2018-10-01T21:23:30.692Z,8.20
2018-10-01T21:25:58.287Z,8.20
2018-10-01T21:28:25.900Z,8.20
2018-10-01T21:30:53.452Z,8.10
2018-10-01T21:33:21.076Z,8.10
2018-10-01T21:35:48.595Z,8.10
2018-10-01T21:38:16.138Z,7.90
2018-10-01T21:40:43.683Z,7.70
2018-10-01T21:43:11.193Z,7.80
2018-10-01T21:45:38.788Z,7.90
2018-10-01T21:48:06.456Z,7.80
2018-10-01T21:50:34.136Z,7.80
2018-10-01T21:53:01.834Z,7.70
2018-10-01T21:55:29.569Z,7.70
2018-10-01T21:57:57.212Z,7.70
2018-10-01T22:00:24.884Z,7.70
2018-10-01T22:02:52.641Z,7.60
2018-10-01T22:05:20.316Z,7.50
2018-10-01T22:07:48.024Z,7.40
2018-10-01T22:10:15.688Z,7.30
2018-10-01T22:12:43.435Z,7.40
2018-10-01T22:15:11.077Z,7.30
2018-10-01T22:17:38.765Z,7.30
2018-10-01T22:20:06.444Z,7.30
2018-10-01T22:22:38.562Z,7.10
2018-10-01T22:25:06.236Z,7.10
2018-10-01T22:27:33.840Z,7.10
2018-10-01T22:30:01.380Z,7.10
2018-10-01T22:32:43.288Z,7.10
2018-10-01T22:35:10.863Z,6.90
2018-10-01T22:37:38.402Z,6.90
2018-10-01T22:40:06.112Z,6.90
2018-10-01T22:42:33.739Z,6.80
2018-10-01T22:45:01.289Z,6.90
2018-10-01T22:47:28.807Z,6.80
2018-10-01T22:52:27.462Z,6.70
2018-10-01T22:54:55.007Z,6.70
2018-10-01T22:57:22.535Z,6.70
2018-10-01T22:59:50.086Z,6.70
2018-10-01T23:02:31.532Z,6.60
2018-10-01T23:04:59.076Z,6.70
2018-10-01T23:07:26.652Z,6.60
2018-10-01T23:09:54.198Z,6.60
2018-10-01T23:12:21.755Z,6.60
2018-10-01T23:14:49.443Z,6.60
2018-10-01T23:17:17.031Z,6.70
2018-10-01T23:19:44.604Z,6.70
2018-10-01T23:22:15.627Z,6.60
2018-10-01T23:24:43.204Z,6.60
2018-10-01T23:27:10.775Z,6.60
2018-10-01T23:29:38.311Z,6.50
2018-10-01T23:32:10.552Z,6.50
2018-10-01T23:34:38.028Z,6.50
2018-10-01T23:37:05.577Z,6.40
2018-10-01T23:39:33.124Z,6.40
2018-10-01T23:42:00.727Z,6.20
2018-10-01T23:44:28.288Z,6.10
2018-10-01T23:46:55.833Z,6.10
2018-10-01T23:49:23.456Z,6.10
2018-10-01T23:51:51.220Z,6.00
2018-10-01T23:56:46.724Z,6.00
2018-10-01T23:59:14.450Z,5.90
